Time;durP1;ratioP1;P1;durP2;ratioP2;P2;SDS_P1;SDS_P2;PMS_P1;PMS_P2;Temp;Humidity;BMP_temperature;BMP_pressure;BME280_temperature;BME280_humidity;BME280_pressure;Samples;Min_cycle;Max_cycle;Signal;HPM_P1;HPM_P2
2022/11/04 00:01:23;;;;;;;0.00;0.00;;;;;;;8.70;71.66;100080.88;7354820;19;20007;-63
2022/11/04 00:03:49;;;;;;;0.00;0.00;;;;;;;8.60;71.66;100062.03;7355275;19;20006;-63
2022/11/04 00:06:15;;;;;;;0.00;0.00;;;;;;;8.64;71.75;100066.28;7355245;19;20010;-63
2022/11/04 00:08:40;;;;;;;0.00;0.00;;;;;;;8.63;71.84;100071.53;7355108;19;20038;-62
2022/11/04 00:13:50;;;;;;;0.00;0.00;;;;;;;8.57;71.58;100070.78;7352963;19;20034;-63
2022/11/04 00:19:00;;;;;;;0.00;0.00;;;;;;;8.51;71.61;100075.28;7355234;19;20013;-63
2022/11/04 00:29:40;;;;;;;0.00;0.00;;;;;;;8.29;71.47;100095.72;7356859;19;20026;-62
2022/11/04 00:34:49;;;;;;;0.00;0.00;;;;;;;8.30;70.99;100120.81;7356004;19;20593;-62
2022/11/04 00:37:15;;;;;;;0.05;0.05;;;;;;;8.28;71.39;100131.28;7352684;19;20018;-63
2022/11/04 00:39:40;;;;;;;0.00;0.00;;;;;;;8.25;71.55;100133.09;7353450;19;20853;-63
2022/11/04 00:42:06;;;;;;;0.00;0.00;;;;;;;8.19;71.03;100135.81;7357852;19;20021;-62
2022/11/04 00:44:31;;;;;;;0.00;0.00;;;;;;;8.17;70.89;100138.47;7356138;19;20007;-63
2022/11/04 00:46:57;;;;;;;0.00;0.00;;;;;;;8.18;71.56;100144.53;7354243;19;20024;-63
2022/11/04 00:49:22;;;;;;;0.00;0.00;;;;;;;8.14;71.58;100137.66;7356241;19;20010;-62
2022/11/04 00:51:47;;;;;;;0.10;0.10;;;;;;;8.12;71.45;100142.91;7352986;19;20010;-62
2022/11/04 00:54:13;;;;;;;0.00;0.00;;;;;;;8.05;71.49;100143.91;7355355;19;20849;-63
2022/11/04 00:56:39;;;;;;;0.00;0.00;;;;;;;8.09;71.57;100155.13;7356332;19;20735;-62
2022/11/04 00:59:05;;;;;;;0.00;0.00;;;;;;;8.06;71.94;100151.72;7349792;19;20457;-62
2022/11/04 01:01:31;;;;;;;0.10;0.10;;;;;;;8.04;71.89;100150.88;7353193;19;20664;-62
2022/11/04 01:03:57;;;;;;;0.00;0.00;;;;;;;8.04;72.10;100153.47;7355699;19;20020;-62
2022/11/04 01:06:25;;;;;;;0.00;0.00;;;;;;;7.96;71.98;100158.00;7355803;19;20013;-63
2022/11/04 01:08:59;;;;;;;0.00;0.00;;;;;;;8.03;71.91;100177.75;7355422;19;20011;-63
2022/11/04 01:11:27;;;;;;;0.05;0.05;;;;;;;7.98;71.96;100184.81;7354949;19;20015;-63
2022/11/04 01:13:53;;;;;;;0.00;0.00;;;;;;;8.00;72.15;100206.41;7354224;19;20029;-63
2022/11/04 01:16:18;;;;;;;0.00;0.00;;;;;;;7.99;72.10;100207.31;7351504;19;20971;-62
2022/11/04 01:18:44;;;;;;;0.00;0.00;;;;;;;7.97;71.91;100214.28;7352740;19;20031;-63
2022/11/04 01:21:12;;;;;;;0.00;0.00;;;;;;;7.97;71.92;100216.91;7352974;19;20472;-63
2022/11/04 01:23:39;;;;;;;0.00;0.00;;;;;;;7.96;72.18;100207.38;7356026;19;20010;-63
2022/11/04 01:26:10;;;;;;;0.00;0.00;;;;;;;7.97;72.03;100219.50;7352112;19;20072;-62
2022/11/04 01:28:36;;;;;;;0.00;0.00;;;;;;;7.93;71.79;100222.19;7354069;19;20014;-63
2022/11/04 01:31:29;;;;;;;0.00;0.00;;;;;;;7.97;71.20;100229.03;7353761;19;20021;-63
2022/11/04 01:33:57;;;;;;;0.08;0.08;;;;;;;7.94;72.31;100239.50;7250627;19;2004456;-62
2022/11/04 01:36:23;;;;;;;0.00;0.00;;;;;;;7.93;72.17;100241.22;7352357;19;20025;-63
2022/11/04 01:38:49;;;;;;;0.10;0.10;;;;;;;7.90;72.21;100248.22;7355752;19;20732;-63
2022/11/04 01:41:23;;;;;;;0.00;0.00;;;;;;;7.94;72.24;100265.47;7352114;19;20017;-63
2022/11/04 01:43:57;;;;;;;0.00;0.00;;;;;;;7.94;72.29;100270.69;7355653;19;20658;-62
2022/11/04 01:46:44;;;;;;;0.05;0.05;;;;;;;7.93;72.10;100264.63;7351310;19;20132;-63
2022/11/04 01:49:27;;;;;;;0.10;0.10;;;;;;;7.93;71.81;100268.97;7353658;19;20027;-63
2022/11/04 01:52:05;;;;;;;0.10;0.10;;;;;;;7.90;72.27;100269.88;7356744;19;20105;-63
2022/11/04 01:54:32;;;;;;;0.08;0.08;;;;;;;7.88;72.34;100276.84;7360784;19;20011;-62
2022/11/04 01:57:02;;;;;;;0.05;0.05;;;;;;;7.88;72.03;100300.25;7361141;19;20017;-62
2022/11/04 01:59:33;;;;;;;0.00;0.00;;;;;;;7.86;72.08;100304.63;7360477;19;20050;-63
2022/11/04 02:01:59;;;;;;;0.08;0.08;;;;;;;7.83;72.48;100304.69;7359945;19;20031;-63
2022/11/04 02:04:25;;;;;;;0.10;0.10;;;;;;;7.70;71.70;100287.56;7359867;19;20101;-63
2022/11/04 02:06:55;;;;;;;0.00;0.00;;;;;;;7.76;72.54;100309.13;7358984;19;20014;-63
2022/11/04 02:09:22;;;;;;;0.00;0.00;;;;;;;7.80;72.26;100325.53;7360635;19;20010;-63
2022/11/04 02:14:33;;;;;;;0.00;0.00;;;;;;;7.61;72.11;100316.34;7359875;19;20030;-62
2022/11/04 02:17:17;;;;;;;0.00;0.00;;;;;;;7.77;71.52;100336.00;7358285;19;20026;-63
2022/11/04 02:20:04;;;;;;;0.00;0.00;;;;;;;7.75;71.48;100353.31;7363125;19;20011;-63
2022/11/04 02:22:58;;;;;;;0.00;0.00;;;;;;;7.72;71.80;100348.19;7361716;19;20011;-63
2022/11/04 02:25:53;;;;;;;0.00;0.00;;;;;;;7.64;72.00;100347.47;7257921;19;2005819;-63
2022/11/04 02:29:01;;;;;;;0.10;0.10;;;;;;;7.68;71.66;100367.31;7257455;19;2004174;-62
2022/11/04 02:31:48;;;;;;;0.00;0.00;;;;;;;7.66;71.73;100369.09;7257884;19;2004192;-63
2022/11/04 02:34:48;;;;;;;0.10;0.10;;;;;;;7.63;72.22;100363.94;7362279;19;20006;-63
2022/11/04 02:37:36;;;;;;;0.00;0.00;;;;;;;7.61;72.29;100366.56;7254520;19;2004286;-63
2022/11/04 02:40:11;;;;;;;0.00;0.00;;;;;;;7.59;72.62;100364.88;7361268;19;20006;-62
2022/11/04 02:42:47;;;;;;;0.00;0.00;;;;;;;7.57;72.32;100366.63;7360294;19;20016;-62
2022/11/04 02:45:21;;;;;;;0.00;0.00;;;;;;;7.55;72.54;100374.44;7358132;19;20026;-62
2022/11/04 02:48:13;;;;;;;0.00;0.00;;;;;;;7.52;72.11;100379.69;7364481;19;20014;-63
2022/11/04 02:50:44;;;;;;;0.00;0.00;;;;;;;7.48;72.42;100385.81;7257773;19;2004374;-63
2022/11/04 02:53:29;;;;;;;0.00;0.00;;;;;;;7.47;71.84;100391.91;7361780;19;20010;-63
2022/11/04 02:55:58;;;;;;;0.00;0.00;;;;;;;7.41;72.34;100390.25;7361452;19;20343;-63
2022/11/04 02:58:40;;;;;;;0.00;0.00;;;;;;;7.46;72.38;100411.84;7347217;19;20020;-63
2022/11/04 03:01:09;;;;;;;0.00;0.00;;;;;;;7.39;72.77;100405.00;7365579;19;20012;-63
2022/11/04 03:03:43;;;;;;;0.00;0.00;;;;;;;7.44;72.46;100421.38;7362062;19;20033;-63
2022/11/04 03:06:11;;;;;;;0.00;0.00;;;;;;;7.43;72.55;100419.66;7365029;19;20018;-62
2022/11/04 03:08:42;;;;;;;0.10;0.10;;;;;;;7.43;72.96;100440.44;7361656;19;20813;-62
2022/11/04 03:11:14;;;;;;;0.08;0.08;;;;;;;7.46;72.44;100429.16;7365600;19;20597;-62
2022/11/04 03:13:49;;;;;;;0.00;0.00;;;;;;;7.43;72.96;100435.25;7362977;19;20038;-63
2022/11/04 03:16:22;;;;;;;0.00;0.00;;;;;;;7.46;72.95;100429.16;7361977;19;20019;-64
2022/11/04 03:19:05;;;;;;;0.00;0.00;;;;;;;7.47;72.55;100441.25;7363347;19;20002;-62
2022/11/04 03:21:35;;;;;;;0.00;0.00;;;;;;;7.46;72.53;100437.81;7361720;19;20013;-63
2022/11/04 03:24:02;;;;;;;0.10;0.10;;;;;;;7.46;72.84;100439.56;7363651;19;20040;-62
2022/11/04 03:26:34;;;;;;;0.00;0.00;;;;;;;7.44;72.60;100451.69;7364545;19;20152;-63
2022/11/04 03:29:02;;;;;;;0.00;0.00;;;;;;;7.44;72.77;100451.69;7359628;19;20006;-63
2022/11/04 03:31:53;;;;;;;0.00;0.00;;;;;;;7.45;72.50;100451.69;7363969;19;20550;-62
2022/11/04 03:34:18;;;;;;;0.00;0.00;;;;;;;7.41;72.64;100447.41;7364063;19;20014;-63
2022/11/04 03:36:44;;;;;;;0.00;0.00;;;;;;;7.40;72.44;100447.41;7364758;19;20479;-63
2022/11/04 03:39:09;;;;;;;0.10;0.10;;;;;;;7.40;72.78;100455.19;7363263;19;20006;-62
2022/11/04 03:41:42;;;;;;;0.00;0.00;;;;;;;7.38;72.79;100457.81;7362785;19;20025;-62
2022/11/04 03:44:08;;;;;;;0.00;0.00;;;;;;;7.26;72.65;100445.88;7360986;19;20021;-62
2022/11/04 03:46:33;;;;;;;0.10;0.10;;;;;;;7.36;72.54;100458.75;7364412;19;20044;-63
2022/11/04 03:49:00;;;;;;;0.10;0.10;;;;;;;7.34;72.45;100465.69;7363344;19;20010;-62
2022/11/04 03:51:26;;;;;;;0.00;0.00;;;;;;;7.26;72.62;100473.59;7363809;19;20555;-63
2022/11/04 03:53:53;;;;;;;0.00;0.00;;;;;;;7.27;72.72;100470.09;7361348;19;20086;-62
2022/11/04 03:56:54;;;;;;;0.10;0.10;;;;;;;7.22;71.95;100482.28;7364368;19;20109;-63
2022/11/04 03:59:38;;;;;;;0.10;0.10;;;;;;;7.28;72.30;100492.59;7261010;19;2004545;-62
2022/11/04 04:02:17;;;;;;;0.00;0.00;;;;;;;7.24;71.98;100496.09;7361251;19;20014;-63
2022/11/04 04:05:11;;;;;;;0.00;0.00;;;;;;;7.24;72.57;100506.50;7355535;19;20006;-62
2022/11/04 04:07:42;;;;;;;0.10;0.10;;;;;;;7.21;72.57;100516.94;7258788;19;2004430;-63
2022/11/04 04:13:37;;;;;;;0.00;0.00;;;;;;;7.14;72.24;100523.91;7257664;19;2004529;-63
2022/11/04 04:16:17;;;;;;;0.00;0.00;;;;;;;7.11;72.72;100530.91;7260971;19;2005693;-63
2022/11/04 04:18:46;;;;;;;0.00;0.00;;;;;;;7.07;72.62;100530.06;7363409;19;20105;-62
2022/11/04 04:21:18;;;;;;;0.08;0.08;;;;;;;7.06;72.42;100540.47;7352599;19;20515;-62
2022/11/04 04:29:20;;;;;;;0.10;0.10;;;;;;;6.91;72.69;100538.91;7361103;19;20648;-63
2022/11/04 04:31:48;;;;;;;0.00;0.00;;;;;;;6.97;72.76;100552.66;7361376;19;20010;-62
2022/11/04 04:34:15;;;;;;;0.00;0.00;;;;;;;6.91;73.11;100550.16;7357236;19;20127;-63
2022/11/04 04:36:45;;;;;;;0.00;0.00;;;;;;;6.96;73.04;100570.88;7346433;19;20855;-62
2022/11/04 04:45:03;;;;;;;0.10;0.10;;;;;;;6.87;72.37;100578.75;7359171;19;20018;-63
2022/11/04 04:47:39;;;;;;;0.10;0.10;;;;;;;6.88;72.53;100586.50;7361775;19;20014;-62
2022/11/04 04:50:06;;;;;;;0.00;0.00;;;;;;;6.85;72.93;100589.16;7361141;19;20007;-63
2022/11/04 04:52:38;;;;;;;0.10;0.10;;;;;;;6.83;72.95;100588.28;7361552;19;20027;-63
2022/11/04 04:55:04;;;;;;;0.00;0.00;;;;;;;6.81;72.39;100592.63;7360704;19;20786;-63
2022/11/04 04:57:29;;;;;;;0.00;0.00;;;;;;;6.78;72.48;100590.06;7361488;19;20010;-63
2022/11/04 04:59:55;;;;;;;0.10;0.10;;;;;;;6.78;72.38;100600.44;7357501;19;20017;-63
2022/11/04 05:02:21;;;;;;;0.00;0.00;;;;;;;6.76;72.47;100603.06;7361050;19;20046;-62
2022/11/04 05:04:46;;;;;;;0.00;0.00;;;;;;;6.74;73.00;100594.44;7358099;19;20854;-63
2022/11/04 05:07:12;;;;;;;0.10;0.10;;;;;;;6.72;72.67;100606.53;7360056;19;20022;-63
2022/11/04 05:09:37;;;;;;;0.10;0.10;;;;;;;6.71;72.35;100615.22;7360780;19;20030;-62
2022/11/04 05:12:03;;;;;;;0.00;0.00;;;;;;;6.69;72.28;100616.06;7361126;19;20011;-63
2022/11/04 05:14:29;;;;;;;0.08;0.08;;;;;;;6.66;72.62;100631.69;7360625;19;20822;-63
2022/11/04 05:16:54;;;;;;;0.00;0.00;;;;;;;6.67;72.40;100638.59;7358372;19;20672;-62
2022/11/04 05:19:20;;;;;;;0.00;0.00;;;;;;;6.64;72.06;100638.59;7358751;19;20014;-63
2022/11/04 05:21:45;;;;;;;0.10;0.10;;;;;;;6.63;72.42;100642.09;7359720;19;20467;-63
2022/11/04 05:24:11;;;;;;;0.00;0.00;;;;;;;6.62;72.26;100642.97;7359793;19;20010;-62
2022/11/04 05:26:36;;;;;;;0.05;0.05;;;;;;;6.59;72.50;100649.06;7358046;19;20006;-62
2022/11/04 05:29:01;;;;;;;0.00;0.00;;;;;;;6.56;72.54;100648.19;7359739;19;20038;-62
2022/11/04 05:31:29;;;;;;;0.00;0.00;;;;;;;6.56;72.24;100653.38;7358618;19;20006;-62
2022/11/04 05:33:55;;;;;;;0.10;0.10;;;;;;;6.45;72.34;100654.31;7359411;19;20006;-63
2022/11/04 05:36:20;;;;;;;0.00;0.00;;;;;;;6.51;72.23;100668.97;7359498;19;20034;-62
2022/11/04 05:38:49;;;;;;;0.10;0.10;;;;;;;6.37;72.58;100645.72;7360354;19;20015;-62
2022/11/04 05:41:24;;;;;;;0.10;0.10;;;;;;;6.48;72.63;100669.84;7360481;19;20017;-62
2022/11/04 05:43:51;;;;;;;0.00;0.00;;;;;;;6.45;72.56;100674.22;7358282;19;20014;-63
2022/11/04 05:46:17;;;;;;;0.00;0.00;;;;;;;6.44;72.52;100683.75;7359659;19;20571;-62
2022/11/04 05:48:42;;;;;;;0.00;0.00;;;;;;;6.42;72.58;100690.66;7359643;19;20010;-62
2022/11/04 05:51:12;;;;;;;0.00;0.00;;;;;;;6.33;72.26;100680.31;7358275;19;20014;-64
2022/11/04 05:53:38;;;;;;;0.05;0.05;;;;;;;6.39;72.73;100690.69;7359143;19;20018;-64
2022/11/04 05:56:03;;;;;;;0.00;0.00;;;;;;;6.35;72.43;100694.16;7359075;19;20759;-63
2022/11/04 05:58:29;;;;;;;0.10;0.10;;;;;;;6.29;72.51;100689.00;7360333;19;20494;-64
2022/11/04 06:01:10;;;;;;;0.10;0.10;;;;;;;6.34;72.06;100701.97;7359098;19;20006;-64
2022/11/04 06:03:35;;;;;;;0.00;0.00;;;;;;;6.30;72.77;100706.28;7357321;19;20017;-64
2022/11/04 06:06:01;;;;;;;0.10;0.10;;;;;;;6.29;72.26;100717.53;7361216;19;20416;-63
2022/11/04 06:08:26;;;;;;;0.10;0.10;;;;;;;6.25;72.76;100708.03;7357670;19;20019;-64
2022/11/04 06:10:51;;;;;;;0.00;0.00;;;;;;;6.24;72.53;100708.91;7359808;19;20046;-63
2022/11/04 06:13:17;;;;;;;0.00;0.00;;;;;;;6.22;72.93;100718.41;7358247;19;20014;-63
2022/11/04 06:15:42;;;;;;;0.00;0.00;;;;;;;6.20;73.02;100704.59;7357796;19;20049;-64
2022/11/04 06:18:07;;;;;;;0.00;0.00;;;;;;;6.19;72.79;100702.88;7356168;19;20007;-63
2022/11/04 06:20:33;;;;;;;0.00;0.00;;;;;;;6.17;73.36;100710.66;7358573;19;20028;-64
2022/11/04 06:22:58;;;;;;;0.00;0.00;;;;;;;6.02;73.25;100691.72;7358366;19;20085;-64
2022/11/04 06:25:24;;;;;;;0.10;0.10;;;;;;;6.13;73.20;100714.16;7357119;19;20007;-64
2022/11/04 06:27:49;;;;;;;0.10;0.10;;;;;;;6.12;72.84;100711.53;7354893;19;20025;-64
2022/11/04 06:30:15;;;;;;;0.10;0.10;;;;;;;6.12;72.76;100716.72;7357933;19;20011;-64
2022/11/04 06:32:40;;;;;;;0.00;0.00;;;;;;;6.08;73.10;100709.81;7356674;19;20050;-63
2022/11/04 06:35:07;;;;;;;0.00;0.00;;;;;;;6.10;73.42;100713.28;7359962;19;20451;-63
2022/11/04 06:37:33;;;;;;;0.10;0.10;;;;;;;6.08;73.08;100704.66;7360393;19;20060;-64
2022/11/04 06:39:59;;;;;;;0.00;0.00;;;;;;;6.07;73.31;100713.28;7363682;19;20013;-64
2022/11/04 06:42:25;;;;;;;0.10;0.10;;;;;;;6.06;72.88;100711.56;7361705;19;20010;-64
2022/11/04 06:44:51;;;;;;;0.00;0.00;;;;;;;5.83;73.20;100676.22;7363951;19;20017;-64
2022/11/04 06:47:17;;;;;;;0.00;0.00;;;;;;;5.87;73.14;100690.88;7363761;19;20014;-63
2022/11/04 06:49:42;;;;;;;0.00;0.00;;;;;;;5.86;73.43;100689.16;7366004;19;20006;-63
2022/11/04 06:52:07;;;;;;;0.00;0.00;;;;;;;5.99;73.22;100715.94;7364976;19;20002;-63
2022/11/04 06:54:33;;;;;;;0.00;0.00;;;;;;;6.02;73.09;100721.09;7362926;19;20003;-63
2022/11/04 06:56:59;;;;;;;0.00;0.00;;;;;;;6.02;73.20;100725.41;7363309;19;20064;-63
2022/11/04 06:59:24;;;;;;;0.03;0.03;;;;;;;6.01;73.21;100728.88;7356518;19;20619;-64
2022/11/04 07:01:50;;;;;;;0.10;0.10;;;;;;;5.98;72.84;100730.63;7358848;19;20025;-63
2022/11/04 07:04:16;;;;;;;0.00;0.00;;;;;;;5.98;73.15;100735.81;7365044;19;20809;-63
2022/11/04 07:06:42;;;;;;;0.10;0.10;;;;;;;5.97;72.99;100744.44;7363149;19;20017;-64
2022/11/04 07:09:10;;;;;;;0.10;0.10;;;;;;;5.95;73.07;100751.38;7365783;19;20042;-63
2022/11/04 07:11:35;;;;;;;0.00;0.00;;;;;;;5.85;73.06;100749.63;7362561;19;20017;-63
2022/11/04 07:14:01;;;;;;;0.10;0.10;;;;;;;5.93;72.63;100763.47;7366792;19;20006;-62
2022/11/04 07:16:27;;;;;;;0.00;0.00;;;;;;;5.92;72.89;100772.09;7363440;19;20819;-64
2022/11/04 07:18:55;;;;;;;0.10;0.10;;;;;;;5.89;73.01;100768.63;7365323;19;20014;-63
2022/11/04 07:21:21;;;;;;;0.10;0.10;;;;;;;5.91;72.90;100765.19;7362429;19;20406;-64
2022/11/04 07:23:46;;;;;;;0.10;0.10;;;;;;;5.89;72.74;100764.31;7365315;19;20073;-62
2022/11/04 07:26:12;;;;;;;0.05;0.05;;;;;;;5.85;73.11;100765.19;7363837;19;20810;-63
2022/11/04 07:28:39;;;;;;;0.00;0.00;;;;;;;5.86;73.05;100764.31;7364311;19;20021;-63
2022/11/04 07:31:06;;;;;;;0.00;0.00;;;;;;;5.85;73.14;100765.19;7363257;19;20843;-62
2022/11/04 07:33:32;;;;;;;0.10;0.10;;;;;;;5.85;73.48;100772.09;7365090;19;20022;-63
2022/11/04 07:36:01;;;;;;;0.00;0.00;;;;;;;5.80;73.22;100766.91;7363678;19;20445;-63
2022/11/04 07:38:26;;;;;;;0.00;0.00;;;;;;;5.74;72.96;100766.94;7363904;19;20081;-63
2022/11/04 07:40:52;;;;;;;0.00;0.00;;;;;;;5.82;73.38;100780.72;7363891;19;20090;-63
2022/11/04 07:43:17;;;;;;;0.08;0.08;;;;;;;5.82;72.84;100783.31;7363743;19;20015;-62
2022/11/04 07:45:43;;;;;;;0.00;0.00;;;;;;;5.81;72.89;100789.38;7364423;19;20025;-63
2022/11/04 07:48:08;;;;;;;0.10;0.10;;;;;;;5.79;73.18;100780.75;7359848;19;20017;-63
2022/11/04 07:50:36;;;;;;;0.10;0.10;;;;;;;5.79;72.99;100777.28;7365107;19;20058;-63
2022/11/04 07:53:02;;;;;;;0.00;0.00;;;;;;;5.78;73.49;100784.22;7365789;19;20032;-63
2022/11/04 07:55:27;;;;;;;0.05;0.05;;;;;;;5.74;73.31;100782.47;7364039;19;22161;-63
2022/11/04 07:57:53;;;;;;;0.00;0.00;;;;;;;5.74;73.12;100787.66;7363137;19;20014;-63
2022/11/04 08:00:19;;;;;;;0.08;0.08;;;;;;;5.79;73.40;100801.47;7360260;19;20009;-63
2022/11/04 08:02:45;;;;;;;0.00;0.00;;;;;;;5.66;73.33;100791.97;7359243;19;20797;-63
2022/11/04 08:05:11;;;;;;;0.00;0.00;;;;;;;5.79;73.30;100819.63;7360267;19;20470;-63
2022/11/04 08:07:37;;;;;;;0.00;0.00;;;;;;;5.81;73.22;100819.59;7355368;19;20010;-63
2022/11/04 08:10:02;;;;;;;0.00;0.00;;;;;;;5.81;73.22;100810.09;7359775;19;20018;-63
2022/11/04 08:12:28;;;;;;;0.00;0.00;;;;;;;5.69;73.63;100805.81;7363076;19;20030;-63
2022/11/04 08:14:53;;;;;;;0.03;0.03;;;;;;;5.80;73.24;100813.56;7364758;19;20571;-63
2022/11/04 08:17:19;;;;;;;0.03;0.03;;;;;;;5.87;73.40;100820.44;7362094;19;20011;-62
2022/11/04 08:19:44;;;;;;;0.00;0.00;;;;;;;5.92;73.63;100836.88;7363351;19;20014;-63
2022/11/04 08:22:10;;;;;;;0.05;0.05;;;;;;;5.95;73.41;100844.66;7360894;19;20010;-62
2022/11/04 08:24:35;;;;;;;0.10;0.10;;;;;;;6.00;73.56;100849.84;7363376;19;20010;-63
2022/11/04 08:27:01;;;;;;;0.10;0.10;;;;;;;6.05;73.68;100844.66;7360007;19;20010;-63
2022/11/04 08:29:27;;;;;;;0.00;0.00;;;;;;;6.08;73.83;100847.22;7363771;19;20002;-63
2022/11/04 08:31:52;;;;;;;0.00;0.00;;;;;;;6.11;73.97;100835.13;7357184;19;20010;-62
2022/11/04 08:34:17;;;;;;;0.10;0.10;;;;;;;6.17;73.58;100834.25;7360102;19;20130;-63
2022/11/04 08:36:44;;;;;;;0.00;0.00;;;;;;;6.17;73.84;100835.13;7361326;19;20014;-63
2022/11/04 08:39:11;;;;;;;0.10;0.10;;;;;;;6.25;73.79;100853.25;7346214;19;20577;-63
2022/11/04 08:41:39;;;;;;;0.10;0.10;;;;;;;6.28;73.97;100858.41;7357591;19;20002;-62
2022/11/04 08:44:06;;;;;;;0.00;0.00;;;;;;;6.36;74.07;100864.47;7360290;19;20018;-62
2022/11/04 08:46:38;;;;;;;0.00;0.00;;;;;;;6.47;74.15;100873.06;7362921;19;20023;-63
2022/11/04 08:49:04;;;;;;;0.00;0.00;;;;;;;6.53;74.40;100871.31;7360546;19;20003;-62
2022/11/04 08:51:31;;;;;;;0.10;0.10;;;;;;;6.75;74.60;100875.56;7362077;19;20006;-63
2022/11/04 08:53:58;;;;;;;0.00;0.00;;;;;;;6.91;74.39;100866.84;7362499;19;20018;-63
2022/11/04 08:56:28;;;;;;;0.00;0.00;;;;;;;7.10;74.57;100877.13;7361640;19;20049;-63
2022/11/04 08:58:54;;;;;;;0.03;0.03;;;;;;;7.26;74.36;100873.56;7360827;19;20015;-64
2022/11/04 09:01:20;;;;;;;0.10;0.10;;;;;;;7.35;74.48;100855.34;7360369;19;20538;-63
2022/11/04 09:03:47;;;;;;;0.00;0.00;;;;;;;7.59;74.86;100850.81;7363279;19;20081;-63
2022/11/04 09:06:16;;;;;;;0.00;0.00;;;;;;;7.99;74.64;100870.38;7353435;19;20027;-64
2022/11/04 09:08:42;;;;;;;0.00;0.00;;;;;;;8.21;73.72;100872.75;7360788;19;20033;-64
2022/11/04 09:11:10;;;;;;;0.10;0.10;;;;;;;8.51;73.53;100880.28;7358018;19;20726;-64
2022/11/04 09:13:36;;;;;;;0.10;0.10;;;;;;;8.77;72.99;100879.13;7360549;19;20546;-64
2022/11/04 09:16:03;;;;;;;0.00;0.00;;;;;;;9.07;73.89;100885.66;7360320;19;20021;-64
2022/11/04 09:18:29;;;;;;;0.00;0.00;;;;;;;9.33;72.88;100885.31;7362768;19;20529;-64
2022/11/04 09:20:55;;;;;;;0.00;0.00;;;;;;;9.60;73.00;100884.03;7360114;19;20015;-64
2022/11/04 09:23:20;;;;;;;0.10;0.10;;;;;;;9.82;71.60;100885.38;7361199;19;20016;-64
2022/11/04 09:25:45;;;;;;;0.00;0.00;;;;;;;10.09;72.26;100893.66;7362213;19;20031;-63
2022/11/04 09:28:11;;;;;;;0.00;0.00;;;;;;;10.32;71.42;100895.88;7358448;19;20795;-64
2022/11/04 09:30:36;;;;;;;0.00;0.00;;;;;;;10.58;71.44;100898.84;7361219;19;24264;-63
2022/11/04 09:33:03;;;;;;;0.00;0.00;;;;;;;10.73;70.90;100875.91;7360403;19;20022;-64
2022/11/04 09:35:28;;;;;;;0.00;0.00;;;;;;;11.05;70.10;100893.53;7359257;19;20057;-63
2022/11/04 09:37:54;;;;;;;0.00;0.00;;;;;;;11.28;69.44;100895.63;7358455;19;20038;-64
2022/11/04 09:40:22;;;;;;;0.00;0.00;;;;;;;11.58;70.09;100891.47;7360309;19;20014;-64
2022/11/04 09:42:59;;;;;;;0.00;0.00;;;;;;;11.85;70.27;100887.34;7358844;19;20027;-64
2022/11/04 09:45:28;;;;;;;0.10;0.10;;;;;;;12.05;70.13;100889.44;7361168;19;20427;-64
2022/11/04 09:48:05;;;;;;;0.00;0.00;;;;;;;12.31;69.45;100891.38;7361355;19;20947;-63
2022/11/04 09:50:43;;;;;;;0.00;0.00;;;;;;;12.51;68.98;100898.69;7361442;19;20006;-65
2022/11/04 09:53:43;;;;;;;0.10;0.10;;;;;;;12.78;69.37;100889.22;7361730;19;20031;-64
2022/11/04 09:56:20;;;;;;;0.00;0.00;;;;;;;12.98;68.52;100881.66;7260461;19;2004109;-64
2022/11/04 09:58:46;;;;;;;0.00;0.00;;;;;;;13.01;67.10;100868.44;7360453;19;20048;-64
2022/11/04 10:01:17;;;;;;;0.00;0.00;;;;;;;13.38;67.71;100893.53;7351853;19;20014;-65
2022/11/04 10:03:43;;;;;;;0.00;0.00;;;;;;;13.50;66.01;100894.03;7354024;19;20011;-65
2022/11/04 10:06:37;;;;;;;0.10;0.10;;;;;;;13.71;66.19;100889.84;7352671;19;20039;-64
2022/11/04 10:09:28;;;;;;;0.10;0.10;;;;;;;14.04;66.32;100879.16;7251518;19;2004119;-65
2022/11/04 10:12:11;;;;;;;0.00;0.00;;;;;;;14.27;66.34;100881.84;7353574;19;20026;-64
2022/11/04 10:14:55;;;;;;;0.00;0.00;;;;;;;14.56;67.14;100887.88;7358420;19;20419;-64
2022/11/04 10:17:59;;;;;;;0.00;0.00;;;;;;;14.80;67.20;100886.13;7359522;19;20010;-64
2022/11/04 10:20:33;;;;;;;0.00;0.00;;;;;;;14.94;64.76;100882.94;7254458;19;2004559;-64
2022/11/04 10:23:13;;;;;;;0.00;0.00;;;;;;;15.03;63.89;100882.59;7355625;19;20056;-64
2022/11/04 10:26:16;;;;;;;0.00;0.00;;;;;;;15.39;65.63;100905.78;7354821;19;20074;-64
2022/11/04 10:28:51;;;;;;;0.00;0.00;;;;;;;15.48;62.91;100898.38;7252581;19;2004211;-64
2022/11/04 10:31:18;;;;;;;0.00;0.00;;;;;;;15.59;61.79;100897.94;7358387;19;20026;-65
2022/11/04 10:33:49;;;;;;;0.00;0.00;;;;;;;15.79;62.65;100892.75;7358913;19;20023;-64
2022/11/04 10:36:16;;;;;;;0.00;0.00;;;;;;;15.86;62.51;100895.13;7358705;19;20854;-65
2022/11/04 10:38:53;;;;;;;0.10;0.10;;;;;;;16.12;62.08;100908.06;7358298;19;20022;-64
2022/11/04 10:41:32;;;;;;;0.00;0.00;;;;;;;16.29;63.81;100904.72;7357913;19;20082;-64
2022/11/04 10:44:03;;;;;;;0.10;0.10;;;;;;;16.39;60.01;100897.25;7357079;19;20014;-64
2022/11/04 10:46:50;;;;;;;0.08;0.08;;;;;;;16.55;60.76;100891.25;7355428;19;20010;-64
2022/11/04 10:49:46;;;;;;;0.10;0.10;;;;;;;16.72;62.55;100898.41;7357082;19;20017;-64
2022/11/04 10:52:12;;;;;;;0.10;0.10;;;;;;;16.69;58.38;100898.53;7256381;19;2004561;-64
2022/11/04 10:54:47;;;;;;;0.03;0.03;;;;;;;16.77;59.83;100901.72;7357766;19;20015;-64
2022/11/04 10:57:22;;;;;;;0.00;0.00;;;;;;;16.75;58.34;100906.22;7358671;19;20015;-64
2022/11/04 10:59:54;;;;;;;0.00;0.00;;;;;;;16.72;59.14;100916.88;7355181;19;20011;-65
2022/11/04 11:02:35;;;;;;;0.00;0.00;;;;;;;16.70;60.49;100921.34;7355857;19;20043;-64
2022/11/04 11:05:11;;;;;;;0.00;0.00;;;;;;;16.64;60.69;100916.34;7356741;19;20006;-64
2022/11/04 11:07:37;;;;;;;0.00;0.00;;;;;;;16.55;57.64;100907.06;7335781;19;20017;-64
2022/11/04 11:10:03;;;;;;;0.10;0.10;;;;;;;16.40;58.28;100881.38;7357898;19;20761;-64
2022/11/04 11:12:29;;;;;;;0.00;0.00;;;;;;;16.69;59.75;100914.38;7356640;19;20007;-64
2022/11/04 11:14:56;;;;;;;0.10;0.10;;;;;;;16.77;57.92;100908.75;7359870;19;20537;-64
2022/11/04 11:17:37;;;;;;;0.10;0.10;;;;;;;16.93;60.84;100907.16;7357830;19;20025;-64
2022/11/04 11:20:19;;;;;;;0.00;0.00;;;;;;;17.03;60.63;100910.22;7353162;19;20062;-64
2022/11/04 11:22:46;;;;;;;0.10;0.10;;;;;;;17.02;57.75;100905.88;7356591;19;20034;-64
2022/11/04 11:25:26;;;;;;;0.05;0.05;;;;;;;17.14;60.20;100910.59;7355227;19;20084;-65
2022/11/04 11:27:58;;;;;;;0.05;0.05;;;;;;;17.18;57.47;100903.38;7345106;19;20760;-64
2022/11/04 11:30:27;;;;;;;0.10;0.10;;;;;;;17.14;56.43;100900.03;7349789;19;20013;-64
2022/11/04 11:32:59;;;;;;;0.10;0.10;;;;;;;17.26;57.75;100896.81;7351516;19;20006;-64
2022/11/04 11:35:30;;;;;;;0.10;0.10;;;;;;;17.30;56.37;100902.81;7351562;19;20846;-64
2022/11/04 11:37:56;;;;;;;0.05;0.05;;;;;;;17.37;55.41;100902.44;7350955;19;20017;-64
2022/11/04 11:40:30;;;;;;;0.10;0.10;;;;;;;17.52;57.09;100905.28;7351698;19;20010;-64
2022/11/04 11:42:59;;;;;;;0.05;0.05;;;;;;;17.54;55.91;100914.00;7351012;19;20014;-64
2022/11/04 11:45:25;;;;;;;0.00;0.00;;;;;;;17.63;54.75;100911.72;7351182;19;20958;-64
2022/11/04 11:47:53;;;;;;;0.10;0.10;;;;;;;17.73;54.26;100906.88;7351311;19;21154;-64
2022/11/04 11:50:33;;;;;;;0.00;0.00;;;;;;;17.82;55.88;100890.59;7351477;19;20834;-64
2022/11/04 11:53:16;;;;;;;0.08;0.08;;;;;;;17.95;56.12;100908.50;7352601;19;20010;-64
2022/11/04 11:55:47;;;;;;;0.10;0.10;;;;;;;17.89;53.37;100902.59;7352871;19;20925;-64
2022/11/04 11:58:27;;;;;;;0.10;0.10;;;;;;;17.89;55.34;100894.66;7351288;19;20025;-64
2022/11/04 12:01:11;;;;;;;0.00;0.00;;;;;;;17.92;54.03;100898.06;7350141;19;20018;-64
2022/11/04 12:03:46;;;;;;;0.10;0.10;;;;;;;17.94;55.32;100906.75;7351453;19;20031;-64
2022/11/04 12:06:31;;;;;;;0.10;0.10;;;;;;;17.92;53.50;100906.00;7351260;19;20018;-64
2022/11/04 12:09:07;;;;;;;0.10;0.10;;;;;;;17.97;53.69;100904.81;7350925;19;20011;-64
2022/11/04 12:11:35;;;;;;;0.00;0.00;;;;;;;18.00;53.62;100903.84;7350638;19;20006;-64
2022/11/04 12:14:35;;;;;;;0.10;0.10;;;;;;;18.04;55.05;100902.72;7352055;19;20010;-64
2022/11/04 12:17:37;;;;;;;0.00;0.00;;;;;;;18.14;55.18;100907.47;7250087;19;2004356;-64
2022/11/04 12:20:25;;;;;;;0.00;0.00;;;;;;;18.17;55.00;100911.75;7247808;19;2004300;-64